createdAt,value
2023-04-12T00:01:07.639Z,8.80
2023-04-12T00:03:34.920Z,8.80
2023-04-12T00:06:03.782Z,8.80
2023-04-12T00:08:35.492Z,8.80
2023-04-12T00:11:04.291Z,8.80
2023-04-12T00:13:31.796Z,8.80
2023-04-12T00:16:00.783Z,8.80
2023-04-12T00:18:28.570Z,8.80
2023-04-12T00:20:56.407Z,8.80
2023-04-12T00:23:23.579Z,8.80
2023-04-12T00:25:50.832Z,8.80
2023-04-12T00:28:18.209Z,8.80
2023-04-12T00:30:46.116Z,8.70
2023-04-12T00:33:13.320Z,8.70
2023-04-12T00:35:40.523Z,8.80
2023-04-12T00:38:11.092Z,8.80
2023-04-12T00:40:44.194Z,8.80
2023-04-12T00:43:18.623Z,8.80
2023-04-12T00:45:47.312Z,8.70
2023-04-12T00:48:19.256Z,8.80
2023-04-12T00:50:47.547Z,8.80
2023-04-12T00:53:15.808Z,8.80
2023-04-12T00:55:45.714Z,8.80
2023-04-12T00:58:14.714Z,8.80
2023-04-12T01:00:42.885Z,8.90
2023-04-12T01:03:12.058Z,8.90
2023-04-12T01:06:10.556Z,8.80
2023-04-12T01:09:30.468Z,8.80
2023-04-12T01:12:25.175Z,8.80
2023-04-12T01:15:06.642Z,8.70
2023-04-12T01:17:48.160Z,8.80
2023-04-12T01:20:23.785Z,8.80
2023-04-12T01:23:14.779Z,8.80
2023-04-12T01:25:48.685Z,8.90
2023-04-12T01:28:22.644Z,8.90
2023-04-12T01:30:52.717Z,9.00
2023-04-12T01:33:22.301Z,9.00
2023-04-12T01:35:52.820Z,9.00
2023-04-12T01:38:21.891Z,9.00
2023-04-12T01:40:49.187Z,9.00
2023-04-12T01:43:16.314Z,8.90
2023-04-12T01:45:43.503Z,9.00
2023-04-12T01:48:12.446Z,9.00
2023-04-12T01:51:00.875Z,9.00
2023-04-12T01:53:49.158Z,9.10
2023-04-12T01:56:20.287Z,9.10
2023-04-12T01:58:50.844Z,9.10
2023-04-12T02:01:19.599Z,9.10
2023-04-12T02:03:50.334Z,9.10
2023-04-12T02:06:23.004Z,9.00
2023-04-12T02:08:50.444Z,8.90
2023-04-12T02:11:18.649Z,9.10
2023-04-12T02:13:45.822Z,9.10
2023-04-12T02:16:14.363Z,9.20
2023-04-12T02:18:42.499Z,9.20
2023-04-12T02:21:09.808Z,9.30
2023-04-12T02:23:36.765Z,9.30
2023-04-12T02:26:04.020Z,9.40
2023-04-12T02:28:31.472Z,9.30
2023-04-12T02:30:58.944Z,9.40
2023-04-12T02:33:28.271Z,9.40
2023-04-12T02:35:57.334Z,9.40
2023-04-12T02:38:24.498Z,9.40
2023-04-12T02:40:51.677Z,9.40
2023-04-12T02:43:19.080Z,9.30
2023-04-12T02:45:48.478Z,9.20
2023-04-12T02:48:15.881Z,9.10
2023-04-12T02:50:42.910Z,9.10
2023-04-12T02:53:10.341Z,9.10
2023-04-12T02:55:39.001Z,9.00
2023-04-12T02:58:06.109Z,9.00
2023-04-12T03:00:33.790Z,9.00
2023-04-12T03:03:03.082Z,9.10
2023-04-12T03:05:30.348Z,9.10
2023-04-12T03:07:57.544Z,9.10
2023-04-12T03:10:24.936Z,9.10
2023-04-12T03:12:51.977Z,9.20
2023-04-12T03:15:19.103Z,9.10
2023-04-12T03:17:46.291Z,9.10
2023-04-12T03:20:14.646Z,9.10
2023-04-12T03:22:41.904Z,9.00
2023-04-12T03:25:10.473Z,9.00
2023-04-12T03:27:37.561Z,8.90
2023-04-12T03:30:06.696Z,8.90
2023-04-12T03:32:34.140Z,8.90
2023-04-12T03:35:01.277Z,8.80
2023-04-12T03:37:28.568Z,8.80
2023-04-12T03:39:55.640Z,8.80
2023-04-12T03:42:32.424Z,8.80
2023-04-12T03:45:01.848Z,8.90
2023-04-12T03:47:29.402Z,8.90
2023-04-12T03:50:10.165Z,9.00
2023-04-12T03:52:38.271Z,9.00
2023-04-12T03:55:07.868Z,9.10
2023-04-12T03:57:35.616Z,9.10
2023-04-12T04:00:02.832Z,9.10
2023-04-12T04:02:31.922Z,9.10
2023-04-12T04:04:59.470Z,9.10
2023-04-12T04:07:27.134Z,9.20
2023-04-12T04:09:57.096Z,9.20
2023-04-12T04:12:24.453Z,9.20
2023-04-12T04:14:51.615Z,9.10
2023-04-12T04:17:19.274Z,9.10
2023-04-12T04:19:46.422Z,9.00
2023-04-12T04:22:14.000Z,8.90
2023-04-12T04:24:41.252Z,8.90
2023-04-12T04:27:08.413Z,8.90
2023-04-12T04:29:36.933Z,8.90
2023-04-12T04:32:04.178Z,8.90
2023-04-12T04:34:31.897Z,8.90
2023-04-12T04:36:58.993Z,9.00
2023-04-12T04:39:27.582Z,9.00
2023-04-12T04:41:55.128Z,9.00
2023-04-12T04:44:22.533Z,8.90
2023-04-12T04:46:49.854Z,8.90
2023-04-12T04:49:17.225Z,8.90
2023-04-12T04:51:44.350Z,9.00
2023-04-12T04:54:14.171Z,9.10
2023-04-12T04:56:41.770Z,9.10
2023-04-12T04:59:08.922Z,9.20
2023-04-12T05:01:36.738Z,9.10
2023-04-12T05:04:04.360Z,9.00
2023-04-12T05:06:31.838Z,9.00
2023-04-12T05:09:00.996Z,9.10
2023-04-12T05:11:28.179Z,9.10
2023-04-12T05:13:55.532Z,9.00
2023-04-12T05:16:23.146Z,9.00
2023-04-12T05:18:50.347Z,9.10
2023-04-12T05:21:17.458Z,9.10
2023-04-12T05:23:47.472Z,9.10
2023-04-12T05:26:14.655Z,9.10
2023-04-12T05:28:41.708Z,9.00
2023-04-12T05:31:09.651Z,9.00
2023-04-12T05:33:37.570Z,9.10
2023-04-12T05:36:05.774Z,9.20
2023-04-12T05:38:33.258Z,9.30
2023-04-12T05:55:06.242Z,9.40
2023-04-12T05:57:33.405Z,10.70
2023-04-12T06:00:00.380Z,10.40
2023-04-12T06:02:27.457Z,10.30
2023-04-12T06:04:55.832Z,10.30
2023-04-12T06:07:22.975Z,10.20
2023-04-12T06:09:50.126Z,10.20
2023-04-12T06:12:17.142Z,10.20
2023-04-12T06:14:44.007Z,10.10
2023-04-12T06:17:11.328Z,10.20
2023-04-12T06:19:38.204Z,10.30
2023-04-12T06:22:05.207Z,10.40
2023-04-12T06:24:32.803Z,10.40
2023-04-12T06:26:59.706Z,10.40
2023-04-12T06:29:26.593Z,10.40
2023-04-12T06:31:53.611Z,10.40
2023-04-12T06:34:20.591Z,10.30
2023-04-12T06:36:47.860Z,10.40
2023-04-12T06:39:17.069Z,10.40
2023-04-12T06:41:44.087Z,10.50
2023-04-12T06:44:11.020Z,10.50
2023-04-12T06:46:37.970Z,10.60
2023-04-12T06:49:04.892Z,10.70
2023-04-12T06:51:31.862Z,10.80
2023-04-12T06:53:58.855Z,10.90
2023-04-12T06:56:25.847Z,10.90
2023-04-12T06:58:52.844Z,11.00
2023-04-12T07:01:19.846Z,10.90
2023-04-12T07:03:46.931Z,11.00
2023-04-12T07:06:23.616Z,11.00
2023-04-12T07:08:52.751Z,11.00
2023-04-12T07:11:22.676Z,11.00
2023-04-12T07:13:51.091Z,11.00
2023-04-12T07:16:18.552Z,11.10
2023-04-12T07:18:45.698Z,11.10
2023-04-12T07:21:17.460Z,11.20
2023-04-12T07:23:44.771Z,11.20
2023-04-12T07:26:11.761Z,11.20
2023-04-12T07:28:39.310Z,11.30
2023-04-12T07:31:07.486Z,11.30
2023-04-12T07:33:36.597Z,11.30
2023-04-12T07:36:04.938Z,11.40
2023-04-12T07:38:31.946Z,11.30
2023-04-12T07:40:58.916Z,11.30
2023-04-12T07:43:26.071Z,11.40
2023-04-12T07:45:55.891Z,11.50
2023-04-12T07:48:23.130Z,11.50
2023-04-12T07:50:50.672Z,11.60
2023-04-12T07:53:29.169Z,11.50
2023-04-12T07:55:57.112Z,11.50
2023-04-12T07:58:24.928Z,11.50
2023-04-12T08:00:53.837Z,11.40
2023-04-12T08:03:20.881Z,11.40
2023-04-12T08:05:53.354Z,11.50
2023-04-12T08:08:24.415Z,11.50
2023-04-12T08:10:52.474Z,11.50
2023-04-12T08:13:20.710Z,11.50
2023-04-12T08:15:48.028Z,11.50
2023-04-12T08:18:15.805Z,11.60
2023-04-12T08:20:44.199Z,11.60
2023-04-12T08:23:12.059Z,11.50
2023-04-12T08:25:39.584Z,11.50
2023-04-12T08:28:09.127Z,11.40
2023-04-12T08:30:36.755Z,11.50
2023-04-12T08:33:04.143Z,11.60
2023-04-12T08:35:31.714Z,11.60
2023-04-12T08:38:00.299Z,11.70
2023-04-12T08:40:27.303Z,11.40
2023-04-12T08:42:55.170Z,11.40
2023-04-12T08:45:29.187Z,11.40
2023-04-12T08:47:56.427Z,11.30
2023-04-12T08:50:26.871Z,11.20
2023-04-12T08:52:54.368Z,11.10
2023-04-12T08:55:21.422Z,11.00
2023-04-12T08:57:49.144Z,10.90
2023-04-12T09:00:17.910Z,10.90
2023-04-12T09:02:47.409Z,10.80
2023-04-12T09:05:15.534Z,10.80
2023-04-12T09:07:42.828Z,10.80
2023-04-12T09:10:09.812Z,10.90
2023-04-12T09:12:47.154Z,10.90
2023-04-12T09:15:17.725Z,10.80
2023-04-12T09:17:44.864Z,10.80
2023-04-12T09:20:17.877Z,10.90
2023-04-12T09:22:46.575Z,11.00
2023-04-12T09:25:15.674Z,11.10
2023-04-12T09:27:51.036Z,11.10
2023-04-12T09:30:19.888Z,11.20
2023-04-12T09:32:49.724Z,11.10
2023-04-12T09:35:17.097Z,11.10
2023-04-12T09:37:44.063Z,11.10
2023-04-12T09:40:11.942Z,11.10
2023-04-12T09:42:53.859Z,11.20
2023-04-12T09:45:25.212Z,11.20
2023-04-12T09:47:54.080Z,11.30
2023-04-12T09:50:34.932Z,11.30
2023-04-12T09:53:04.272Z,11.30
2023-04-12T09:55:32.802Z,11.30
2023-04-12T09:58:04.642Z,11.40
2023-04-12T10:00:34.456Z,11.50
2023-04-12T10:03:01.984Z,11.50
2023-04-12T10:05:31.830Z,11.50
2023-04-12T10:07:59.906Z,11.50
2023-04-12T10:10:27.221Z,11.50
2023-04-12T10:12:55.041Z,11.50
2023-04-12T10:15:22.423Z,11.50
2023-04-12T10:17:54.146Z,11.40
2023-04-12T10:20:24.829Z,11.40
2023-04-12T10:22:54.244Z,11.50
2023-04-12T10:25:27.239Z,11.50
2023-04-12T10:27:57.002Z,11.60
2023-04-12T10:30:30.575Z,11.50
2023-04-12T10:33:03.716Z,11.50
2023-04-12T10:36:04.027Z,11.60
2023-04-12T10:38:44.635Z,11.60
2023-04-12T10:41:17.259Z,11.70
2023-04-12T10:43:49.735Z,11.70
2023-04-12T10:46:37.475Z,11.70
2023-04-12T10:49:17.754Z,11.70
2023-04-12T10:52:05.708Z,11.80
2023-04-12T10:54:37.101Z,11.80
2023-04-12T10:57:06.624Z,11.80
2023-04-12T10:59:57.470Z,11.80
2023-04-12T11:02:24.996Z,11.80
2023-04-12T11:05:10.348Z,11.90
2023-04-12T11:07:42.879Z,12.00
2023-04-12T11:10:15.813Z,12.00
2023-04-12T11:12:57.258Z,12.10
2023-04-12T11:15:28.977Z,12.00
2023-04-12T11:17:58.147Z,12.10
2023-04-12T11:20:27.892Z,12.10
2023-04-12T11:22:55.701Z,12.10
2023-04-12T11:25:23.082Z,12.10
2023-04-12T11:27:52.430Z,12.30
2023-04-12T11:30:20.254Z,12.40
2023-04-12T11:32:47.814Z,12.40
2023-04-12T11:35:20.405Z,12.40
2023-04-12T11:37:47.846Z,12.50
2023-04-12T11:40:15.076Z,12.50
2023-04-12T11:42:42.367Z,12.50
2023-04-12T11:45:15.836Z,12.60
2023-04-12T11:47:46.149Z,12.70
2023-04-12T11:50:13.511Z,12.70
2023-04-12T11:52:41.476Z,12.80
2023-04-12T11:55:11.378Z,12.80
2023-04-12T11:57:39.569Z,13.00
2023-04-12T12:00:07.486Z,13.10
2023-04-12T12:02:43.717Z,13.10
2023-04-12T12:05:17.199Z,13.10
2023-04-12T12:07:44.517Z,13.20
2023-04-12T12:10:13.357Z,13.20
2023-04-12T12:12:44.966Z,13.30
2023-04-12T12:15:15.384Z,13.40
2023-04-12T12:17:42.473Z,13.40
2023-04-12T12:20:21.512Z,13.40
2023-04-12T12:22:49.986Z,13.50
2023-04-12T12:25:20.506Z,13.50
2023-04-12T12:27:51.360Z,13.50
2023-04-12T12:30:20.414Z,13.50
2023-04-12T12:32:52.587Z,13.50
2023-04-12T12:35:19.805Z,13.50
2023-04-12T12:37:56.202Z,13.50
2023-04-12T12:40:34.176Z,13.50
2023-04-12T12:43:01.416Z,13.50
2023-04-12T12:45:31.570Z,13.60
2023-04-12T12:48:04.713Z,13.60
2023-04-12T12:50:34.944Z,13.60
2023-04-12T12:53:03.646Z,13.50
2023-04-12T12:55:31.561Z,13.50
2023-04-12T13:00:29.946Z,13.70
2023-04-12T13:02:58.648Z,13.70
2023-04-12T13:05:27.282Z,13.80
2023-04-12T13:07:54.327Z,13.80
2023-04-12T13:10:21.691Z,13.80
2023-04-12T13:12:48.676Z,13.80
2023-04-12T13:17:45.744Z,13.80
2023-04-12T13:20:13.181Z,13.90
2023-04-12T13:22:40.488Z,14.00
2023-04-12T13:25:09.186Z,14.00
2023-04-12T13:27:36.640Z,14.00
2023-04-12T13:30:04.749Z,14.00
2023-04-12T13:32:31.849Z,14.00
2023-04-12T13:34:58.906Z,14.00
2023-04-12T13:37:26.031Z,14.00
2023-04-12T13:39:53.176Z,14.10
2023-04-12T13:42:20.266Z,14.20
2023-04-12T13:44:48.705Z,14.20
2023-04-12T13:47:17.984Z,14.20
2023-04-12T13:49:45.421Z,14.30
2023-04-12T13:52:13.247Z,14.30
2023-04-12T13:54:41.086Z,14.30
2023-04-12T13:57:09.328Z,14.30
2023-04-12T13:59:36.327Z,14.40
2023-04-12T14:02:03.601Z,14.40
2023-04-12T14:04:32.179Z,14.40
2023-04-12T14:06:59.640Z,14.40
2023-04-12T14:09:28.175Z,14.40
2023-04-12T14:11:57.905Z,14.40
2023-04-12T14:14:27.279Z,14.40
2023-04-12T14:16:58.965Z,14.40
2023-04-12T14:19:26.945Z,14.50
2023-04-12T14:21:54.254Z,14.50
2023-04-12T14:24:21.934Z,14.50
2023-04-12T14:26:51.202Z,14.60
2023-04-12T14:29:18.235Z,14.60
2023-04-12T14:31:45.571Z,14.60
2023-04-12T14:34:13.497Z,14.50
2023-04-12T14:36:40.779Z,14.50
2023-04-12T14:39:11.198Z,14.50
2023-04-12T14:41:40.717Z,14.40
2023-04-12T14:44:07.780Z,14.40
2023-04-12T14:46:34.791Z,14.40
2023-04-12T14:49:01.858Z,14.30
2023-04-12T14:51:29.957Z,14.30
2023-04-12T14:53:58.592Z,14.30
2023-04-12T14:56:30.385Z,14.30
2023-04-12T14:59:02.636Z,14.40
2023-04-12T15:01:30.021Z,14.40
2023-04-12T15:03:57.544Z,14.30
2023-04-12T15:06:30.545Z,14.20
2023-04-12T15:08:57.596Z,14.20
2023-04-12T15:11:27.234Z,14.20
2023-04-12T15:13:55.647Z,14.10
2023-04-12T15:16:23.498Z,14.10
2023-04-12T15:18:52.020Z,14.10
2023-04-12T15:21:19.214Z,14.00
2023-04-12T15:23:46.406Z,14.10
2023-04-12T15:26:14.459Z,14.10
2023-04-12T15:28:42.492Z,14.20
2023-04-12T15:31:11.959Z,14.30
2023-04-12T15:33:39.047Z,14.30
2023-04-12T15:36:06.708Z,14.30
2023-04-12T15:38:42.596Z,14.30
2023-04-12T15:41:09.828Z,14.20
2023-04-12T15:43:37.388Z,14.10
2023-04-12T15:46:04.923Z,14.00
2023-04-12T15:48:32.395Z,13.80
2023-04-12T15:51:00.269Z,13.80
2023-04-12T15:53:27.710Z,13.70
2023-04-12T15:55:55.458Z,13.80
2023-04-12T15:58:27.322Z,13.80
2023-04-12T16:00:55.082Z,13.80
2023-04-12T16:03:26.510Z,13.80
2023-04-12T16:05:54.332Z,13.80
2023-04-12T16:08:22.389Z,13.80
2023-04-12T16:10:50.679Z,13.80
2023-04-12T16:13:18.870Z,13.70
2023-04-12T16:15:47.240Z,13.70
2023-04-12T16:18:14.374Z,13.70
2023-04-12T16:20:41.425Z,13.70
2023-04-12T16:23:09.311Z,13.70
2023-04-12T16:25:36.515Z,13.70
2023-04-12T16:28:04.218Z,13.70
2023-04-12T16:30:32.434Z,13.70
2023-04-12T16:33:00.334Z,13.70
2023-04-12T16:35:27.824Z,13.70
2023-04-12T16:37:55.582Z,13.70
2023-04-12T16:40:24.685Z,13.60
2023-04-12T16:42:52.065Z,13.60
2023-04-12T16:45:19.820Z,13.50
2023-04-12T16:47:47.733Z,13.40
2023-04-12T16:50:15.516Z,13.20
2023-04-12T16:52:42.773Z,13.20
2023-04-12T16:55:12.494Z,13.20
2023-04-12T16:57:41.855Z,13.20
2023-04-12T17:00:19.338Z,13.20
2023-04-12T17:02:51.284Z,13.20
2023-04-12T17:05:20.077Z,13.20
2023-04-12T17:07:51.453Z,13.20
2023-04-12T17:10:21.367Z,13.10
2023-04-12T17:12:51.662Z,13.10
2023-04-12T17:15:22.139Z,13.10
2023-04-12T17:17:59.712Z,13.10
2023-04-12T17:20:27.303Z,13.00
2023-04-12T17:22:55.567Z,13.00
2023-04-12T17:25:25.142Z,12.90
2023-04-12T17:27:54.343Z,12.90
2023-04-12T17:30:21.681Z,12.80
2023-04-12T17:32:48.814Z,12.80
2023-04-12T17:35:18.877Z,12.70
2023-04-12T17:37:46.951Z,12.60
2023-04-12T17:40:15.281Z,12.60
2023-04-12T17:42:44.164Z,12.50
2023-04-12T17:45:14.017Z,12.50
2023-04-12T17:47:42.604Z,12.40
2023-04-12T17:50:11.809Z,12.30
2023-04-12T17:52:39.370Z,12.30
2023-04-12T17:55:09.397Z,12.20
2023-04-12T17:57:36.816Z,12.10
2023-04-12T18:00:14.367Z,12.00
2023-04-12T18:02:43.927Z,12.00
2023-04-12T18:05:12.427Z,11.90
2023-04-12T18:07:43.763Z,11.90
2023-04-12T18:10:15.567Z,11.80
2023-04-12T18:12:45.213Z,11.70
2023-04-12T18:15:12.769Z,11.60
2023-04-12T18:17:39.978Z,11.60
2023-04-12T18:20:10.999Z,11.60
2023-04-12T18:22:38.882Z,11.50
2023-04-12T18:25:10.247Z,11.40
2023-04-12T18:27:37.457Z,11.30
2023-04-12T18:30:05.444Z,11.20
2023-04-12T18:32:32.525Z,11.20
2023-04-12T18:34:59.661Z,11.20
2023-04-12T18:37:27.826Z,11.20
2023-04-12T18:39:55.575Z,11.20
2023-04-12T18:42:22.674Z,11.20
2023-04-12T18:44:50.258Z,11.10
2023-04-12T18:47:19.798Z,11.10
2023-04-12T18:49:48.007Z,11.10
2023-04-12T18:52:15.066Z,11.10
2023-04-12T18:54:42.105Z,11.10
2023-04-12T18:57:09.160Z,11.00
2023-04-12T18:59:36.477Z,11.00
2023-04-12T19:02:03.667Z,11.00
2023-04-12T19:04:30.680Z,10.90
2023-04-12T19:06:57.855Z,10.80
2023-04-12T19:09:24.859Z,10.70
2023-04-12T19:11:55.493Z,10.60
2023-04-12T19:14:22.747Z,10.50
2023-04-12T19:16:49.747Z,10.50
2023-04-12T19:19:16.797Z,10.50
2023-04-12T19:21:43.830Z,10.50
2023-04-12T19:24:10.862Z,10.50
2023-04-12T19:26:40.122Z,10.50
2023-04-12T19:29:09.948Z,10.40
2023-04-12T19:31:37.092Z,10.40
2023-04-12T19:34:05.562Z,10.30
2023-04-12T19:36:32.706Z,10.30
2023-04-12T19:39:01.604Z,10.20
2023-04-12T19:41:28.763Z,10.10
2023-04-12T19:43:56.216Z,10.00
2023-04-12T19:46:23.355Z,10.10
2023-04-12T19:48:51.381Z,10.10
2023-04-12T19:51:18.489Z,10.10
2023-04-12T19:53:47.824Z,10.10
2023-04-12T19:56:15.132Z,10.00
2023-04-12T19:58:42.189Z,9.90
2023-04-12T20:01:09.934Z,9.80
2023-04-12T20:03:37.717Z,9.70
2023-04-12T20:06:06.123Z,9.70
2023-04-12T20:08:33.205Z,9.70
2023-04-12T20:11:00.286Z,9.60
2023-04-12T20:13:28.688Z,9.60
2023-04-12T20:15:55.658Z,9.70
2023-04-12T20:18:22.631Z,9.70
2023-04-12T20:20:49.739Z,9.70
2023-04-12T20:23:17.111Z,9.60
2023-04-12T20:25:49.092Z,9.60
2023-04-12T20:28:16.382Z,9.50
2023-04-12T20:30:45.339Z,9.50
2023-04-12T20:33:13.017Z,9.50
2023-04-12T20:35:40.992Z,9.50
2023-04-12T20:38:08.548Z,9.50
2023-04-12T20:40:35.939Z,9.50
2023-04-12T20:43:03.765Z,9.50
2023-04-12T20:45:30.851Z,9.40
2023-04-12T20:47:57.925Z,9.40
2023-04-12T20:50:25.357Z,9.30
2023-04-12T20:52:52.492Z,9.30
2023-04-12T20:55:22.785Z,9.30
2023-04-12T20:57:55.849Z,9.30
2023-04-12T21:00:23.818Z,9.30
2023-04-12T21:02:50.990Z,9.20
2023-04-12T21:05:18.040Z,9.10
2023-04-12T21:07:46.925Z,9.00
2023-04-12T21:10:14.789Z,9.00
2023-04-12T21:12:43.163Z,9.00
2023-04-12T21:15:12.022Z,9.00
2023-04-12T21:17:40.610Z,8.90
2023-04-12T21:20:11.555Z,8.80
2023-04-12T21:22:38.821Z,8.90
2023-04-12T21:25:07.567Z,9.00
2023-04-12T21:27:35.218Z,8.90
2023-04-12T21:30:03.510Z,8.90
2023-04-12T21:32:32.427Z,9.00
2023-04-12T21:35:00.090Z,9.00
2023-04-12T21:37:27.013Z,9.10
2023-04-12T21:39:53.895Z,9.00
2023-04-12T21:42:20.963Z,9.00
2023-04-12T21:44:47.836Z,9.00
2023-04-12T21:47:14.772Z,9.00
2023-04-12T21:49:41.627Z,9.10
2023-04-12T21:52:08.553Z,9.10
2023-04-12T21:54:36.920Z,9.10
2023-04-12T21:57:04.074Z,9.10
2023-04-12T21:59:30.964Z,9.10
2023-04-12T22:01:57.947Z,9.00
2023-04-12T22:04:24.815Z,9.00
2023-04-12T22:06:52.617Z,9.00
2023-04-12T22:09:20.277Z,9.00
2023-04-12T22:11:49.047Z,9.00
2023-04-12T22:14:15.978Z,8.90
2023-04-12T22:16:42.950Z,8.80
2023-04-12T22:19:09.871Z,8.70
2023-04-12T22:21:37.277Z,8.70
2023-04-12T22:24:04.230Z,8.70
2023-04-12T22:26:31.559Z,8.70
2023-04-12T22:28:58.494Z,8.60
2023-04-12T22:31:26.211Z,8.60
2023-04-12T22:33:55.355Z,8.60
2023-04-12T22:36:28.448Z,8.50
2023-04-12T22:38:56.273Z,8.50
2023-04-12T22:41:23.176Z,8.50
2023-04-12T22:43:50.131Z,8.50
2023-04-12T22:46:18.722Z,8.50
2023-04-12T22:48:47.730Z,8.60
2023-04-12T22:51:15.675Z,8.60
2023-04-12T22:53:43.527Z,8.50
2023-04-12T22:56:11.241Z,8.50
2023-04-12T22:58:40.178Z,8.40
2023-04-12T23:01:07.504Z,8.40
2023-04-12T23:03:34.529Z,8.50
2023-04-12T23:06:02.028Z,8.40
2023-04-12T23:08:29.339Z,8.40
2023-04-12T23:11:02.941Z,8.40
2023-04-12T23:13:34.827Z,8.40
2023-04-12T23:16:07.771Z,8.40
2023-04-12T23:18:34.579Z,8.30
2023-04-12T23:21:03.978Z,8.20
2023-04-12T23:23:30.857Z,8.30
2023-04-12T23:25:57.749Z,8.30
2023-04-12T23:28:25.822Z,8.30
2023-04-12T23:30:52.803Z,8.40
2023-04-12T23:33:21.875Z,8.40
2023-04-12T23:35:58.557Z,8.40
2023-04-12T23:38:32.144Z,8.40
2023-04-12T23:41:04.095Z,8.40
2023-04-12T23:43:32.619Z,8.40
2023-04-12T23:46:01.460Z,8.40
2023-04-12T23:48:29.054Z,8.40
2023-04-12T23:50:56.305Z,8.40
2023-04-12T23:53:23.293Z,8.40
2023-04-12T23:55:53.455Z,8.50
2023-04-12T23:58:21.534Z,8.50
